CPA319 ZSPD-VHHH
Flight info
| Callsign | CPA319 |
|---|---|
| Flight time | 2h 9m |
| Altitude | 37100 |
| Route | HSN82D HSN W13 TOGUG/K0919S1100 W13 BEGMO M503 TOLAK/N0496F361 M503 LELIM/N0517F300 V591 ABBEY |
| Aircraft | B77W/H-SDE1E2E3FGHIJ2J3J4J5M1RWXY/LB1D1 |
Departure
| Time | 2026-05-05 04:27 |
|---|---|
| Airport | Shanghai Pudong International Airport (ZSPD) |
Arrival
| Time | 2026-05-05 06:37 |
|---|---|
| Airport | Hong Kong International Airport (VHHH) |
| Time | Latitude | Longitude | Altitude | Speed | Heading |
|---|---|---|---|---|---|
| 2026-05-05 03:58 | 31.15894 | 121.80531 | 28 ft | 0 kts | 251° |
| 2026-05-05 04:20 | 31.15894 | 121.80532 | 28 ft | 1 kts | 251° |
| 2026-05-05 04:20 | 31.15901 | 121.80559 | 28 ft | 4 kts | 252° |
| 2026-05-05 04:20 | 31.15908 | 121.80584 | 28 ft | 3 kts | 252° |
| 2026-05-05 04:21 | 31.15917 | 121.80606 | 25 ft | 4 kts | 221° |
| 2026-05-05 04:21 | 31.15931 | 121.80616 | 26 ft | 4 kts | 177° |
| 2026-05-05 04:21 | 31.15954 | 121.80611 | 27 ft | 3 kts | 162° |
| 2026-05-05 04:21 | 31.15975 | 121.80603 | 26 ft | 0 kts | 162° |
| 2026-05-05 04:24 | 31.15972 | 121.80604 | 26 ft | 3 kts | 162° |
| 2026-05-05 04:24 | 31.15912 | 121.80627 | 28 ft | 11 kts | 162° |
| 2026-05-05 04:24 | 31.15836 | 121.80655 | 28 ft | 11 kts | 162° |
| 2026-05-05 04:25 | 31.15773 | 121.80778 | 27 ft | 11 kts | 72° |
| 2026-05-05 04:25 | 31.15796 | 121.80860 | 27 ft | 11 kts | 71° |
| 2026-05-05 04:25 | 31.15818 | 121.80942 | 27 ft | 11 kts | 72° |
| 2026-05-05 04:25 | 31.15842 | 121.81027 | 27 ft | 12 kts | 72° |
| 2026-05-05 04:26 | 31.15867 | 121.81120 | 26 ft | 12 kts | 72° |
| 2026-05-05 04:26 | 31.15842 | 121.81201 | 26 ft | 12 kts | 155° |
| 2026-05-05 04:26 | 31.15718 | 121.81249 | 32 ft | 33 kts | 162° |
| 2026-05-05 04:26 | 31.15279 | 121.81414 | 27 ft | 105 kts | 162° |
| 2026-05-05 04:27 | 31.14355 | 121.81760 | 31 ft | 170 kts | 162° |
| 2026-05-05 04:27 | 31.13187 | 121.82210 | 579 ft | 176 kts | 162° |
| 2026-05-05 04:27 | 31.12043 | 121.82701 | 1399 ft | 180 kts | 159° |
| 2026-05-05 04:27 | 31.10823 | 121.83330 | 1802 ft | 207 kts | 157° |
| 2026-05-05 04:28 | 31.09470 | 121.84146 | 2299 ft | 230 kts | 150° |
| 2026-05-05 04:28 | 31.08024 | 121.85088 | 2827 ft | 243 kts | 158° |
| 2026-05-05 04:28 | 31.06471 | 121.85884 | 3682 ft | 247 kts | 149° |
| 2026-05-05 04:28 | 31.05165 | 121.87186 | 4400 ft | 253 kts | 139° |
| 2026-05-05 04:29 | 31.03758 | 121.88522 | 4915 ft | 270 kts | 143° |
| 2026-05-05 04:29 | 31.02236 | 121.89838 | 4920 ft | 271 kts | 144° |
| 2026-05-05 04:29 | 31.00740 | 121.91145 | 4932 ft | 269 kts | 140° |
| 2026-05-05 04:29 | 30.99254 | 121.92484 | 5096 ft | 269 kts | 154° |
| 2026-05-05 04:30 | 30.97513 | 121.93336 | 5895 ft | 274 kts | 161° |
| 2026-05-05 04:30 | 30.95691 | 121.94052 | 6698 ft | 280 kts | 163° |
| 2026-05-05 04:30 | 30.93825 | 121.94753 | 7496 ft | 283 kts | 163° |
| 2026-05-05 04:30 | 30.91944 | 121.95474 | 8309 ft | 286 kts | 162° |
| 2026-05-05 04:31 | 30.90054 | 121.96216 | 9184 ft | 288 kts | 162° |
| 2026-05-05 04:31 | 30.88168 | 121.96972 | 10029 ft | 289 kts | 162° |
| 2026-05-05 04:31 | 30.86247 | 121.97752 | 10676 ft | 299 kts | 162° |
| 2026-05-05 04:31 | 30.84279 | 121.98556 | 10885 ft | 325 kts | 162° |
| 2026-05-05 04:32 | 30.82053 | 121.99470 | 11113 ft | 353 kts | 162° |
| 2026-05-05 04:32 | 30.79656 | 122.00462 | 11418 ft | 376 kts | 162° |
| 2026-05-05 04:32 | 30.77147 | 122.01506 | 12117 ft | 388 kts | 162° |
| 2026-05-05 04:32 | 30.74578 | 122.02579 | 13016 ft | 396 kts | 162° |
| 2026-05-05 04:33 | 30.71967 | 122.03670 | 13988 ft | 402 kts | 162° |
| 2026-05-05 04:33 | 30.69315 | 122.04779 | 14891 ft | 406 kts | 162° |
| 2026-05-05 04:33 | 30.66638 | 122.05898 | 15854 ft | 410 kts | 162° |
| 2026-05-05 04:33 | 30.63944 | 122.07022 | 16786 ft | 414 kts | 162° |
| 2026-05-05 04:34 | 30.61214 | 122.08161 | 17684 ft | 419 kts | 163° |
| 2026-05-05 04:34 | 30.58453 | 122.09311 | 18527 ft | 425 kts | 163° |
| 2026-05-05 04:34 | 30.55689 | 122.10461 | 19294 ft | 429 kts | 163° |
| 2026-05-05 04:34 | 30.52878 | 122.11630 | 20106 ft | 431 kts | 164° |
| 2026-05-05 04:35 | 30.50039 | 122.12811 | 20918 ft | 434 kts | 165° |
| 2026-05-05 04:35 | 30.47184 | 122.13997 | 21685 ft | 438 kts | 165° |
| 2026-05-05 04:35 | 30.44306 | 122.15192 | 22422 ft | 442 kts | 166° |
| 2026-05-05 04:35 | 30.41390 | 122.16401 | 23157 ft | 445 kts | 167° |
| 2026-05-05 04:36 | 30.38463 | 122.17614 | 23848 ft | 449 kts | 167° |
| 2026-05-05 04:36 | 30.35508 | 122.18839 | 24415 ft | 452 kts | 167° |
| 2026-05-05 04:36 | 30.32530 | 122.20072 | 24989 ft | 456 kts | 168° |
| 2026-05-05 04:36 | 30.29527 | 122.21315 | 25556 ft | 459 kts | 168° |
| 2026-05-05 04:37 | 30.26505 | 122.22565 | 26119 ft | 463 kts | 168° |
| 2026-05-05 04:37 | 30.23465 | 122.23822 | 26656 ft | 466 kts | 168° |
| 2026-05-05 04:37 | 30.20388 | 122.25093 | 27188 ft | 469 kts | 169° |
| 2026-05-05 04:37 | 30.17300 | 122.26369 | 27695 ft | 473 kts | 169° |
| 2026-05-05 04:38 | 30.14226 | 122.27637 | 28192 ft | 476 kts | 169° |
| 2026-05-05 04:38 | 30.11097 | 122.28928 | 28670 ft | 479 kts | 169° |
| 2026-05-05 04:38 | 30.07950 | 122.30226 | 29120 ft | 482 kts | 169° |
| 2026-05-05 04:38 | 30.04776 | 122.31534 | 29539 ft | 485 kts | 169° |
| 2026-05-05 04:39 | 30.01585 | 122.32849 | 29972 ft | 487 kts | 169° |
| 2026-05-05 04:39 | 29.98391 | 122.34164 | 30408 ft | 487 kts | 169° |
| 2026-05-05 04:39 | 29.95245 | 122.35458 | 30878 ft | 485 kts | 170° |
| 2026-05-05 04:39 | 29.92049 | 122.36616 | 31371 ft | 477 kts | 175° |
| 2026-05-05 04:40 | 29.88814 | 122.37427 | 31848 ft | 471 kts | 178° |
| 2026-05-05 04:40 | 29.85593 | 122.38155 | 32298 ft | 469 kts | 179° |
| 2026-05-05 04:40 | 29.82380 | 122.38873 | 32732 ft | 469 kts | 179° |
| 2026-05-05 04:40 | 29.79226 | 122.39585 | 33186 ft | 468 kts | 179° |
| 2026-05-05 04:41 | 29.76033 | 122.40314 | 33618 ft | 467 kts | 179° |
| 2026-05-05 04:41 | 29.73879 | 122.40811 | 33893 ft | 467 kts | 179° |
| 2026-05-05 04:41 | 29.73039 | 122.41005 | 33998 ft | 467 kts | 179° |
| 2026-05-05 04:42 | 29.70278 | 122.41646 | 34305 ft | 466 kts | 179° |
| 2026-05-05 04:42 | 29.67096 | 122.42386 | 34606 ft | 467 kts | 179° |
| 2026-05-05 04:42 | 29.63907 | 122.43128 | 34887 ft | 467 kts | 180° |
| 2026-05-05 04:42 | 29.60719 | 122.43869 | 35179 ft | 467 kts | 180° |
| 2026-05-05 04:43 | 29.57528 | 122.44612 | 35492 ft | 467 kts | 180° |
| 2026-05-05 04:43 | 29.54347 | 122.45352 | 35803 ft | 467 kts | 180° |
| 2026-05-05 04:43 | 29.51163 | 122.46092 | 36094 ft | 467 kts | 180° |
| 2026-05-05 04:43 | 29.47980 | 122.46830 | 36373 ft | 466 kts | 180° |
| 2026-05-05 04:44 | 29.44798 | 122.47568 | 36657 ft | 466 kts | 180° |
| 2026-05-05 04:44 | 29.41619 | 122.48304 | 36953 ft | 466 kts | 181° |
| 2026-05-05 04:44 | 29.38441 | 122.49040 | 37237 ft | 465 kts | 181° |
| 2026-05-05 04:44 | 29.35273 | 122.49773 | 37513 ft | 465 kts | 181° |
| 2026-05-05 04:45 | 29.32141 | 122.50497 | 37792 ft | 464 kts | 181° |
| 2026-05-05 04:45 | 29.28972 | 122.51230 | 38052 ft | 464 kts | 181° |
| 2026-05-05 04:45 | 29.25799 | 122.51961 | 38163 ft | 464 kts | 181° |
| 2026-05-05 04:45 | 29.22667 | 122.52364 | 38215 ft | 441 kts | 193° |
| 2026-05-05 04:46 | 29.19684 | 122.52048 | 38222 ft | 423 kts | 201° |
| 2026-05-05 04:46 | 29.16867 | 122.51271 | 38219 ft | 410 kts | 208° |
| 2026-05-05 04:46 | 29.14286 | 122.50047 | 38215 ft | 395 kts | 216° |
| 2026-05-05 04:47 | 29.09429 | 122.47132 | 38231 ft | 394 kts | 217° |
| 2026-05-05 04:47 | 29.04559 | 122.44218 | 38226 ft | 395 kts | 216° |
| 2026-05-05 04:48 | 28.99666 | 122.41318 | 38222 ft | 396 kts | 216° |
| 2026-05-05 04:48 | 28.94783 | 122.38441 | 38220 ft | 398 kts | 216° |
| 2026-05-05 04:49 | 28.89850 | 122.35544 | 38223 ft | 399 kts | 216° |
| 2026-05-05 04:49 | 28.85740 | 122.33133 | 38217 ft | 400 kts | 216° |
| 2026-05-05 04:50 | 28.80792 | 122.30233 | 38220 ft | 400 kts | 216° |
| 2026-05-05 04:50 | 28.75842 | 122.27335 | 38219 ft | 400 kts | 216° |
| 2026-05-05 04:51 | 28.70877 | 122.24431 | 38220 ft | 400 kts | 216° |
| 2026-05-05 04:51 | 28.65927 | 122.21539 | 38218 ft | 400 kts | 216° |
| 2026-05-05 04:52 | 28.61008 | 122.18668 | 38218 ft | 399 kts | 216° |
| 2026-05-05 04:52 | 28.56066 | 122.15786 | 38220 ft | 399 kts | 216° |
| 2026-05-05 04:53 | 28.51134 | 122.12913 | 38220 ft | 398 kts | 216° |
| 2026-05-05 04:53 | 28.46206 | 122.10045 | 38220 ft | 398 kts | 216° |
| 2026-05-05 04:54 | 28.41274 | 122.07179 | 38229 ft | 398 kts | 216° |
| 2026-05-05 04:54 | 28.36339 | 122.04312 | 38223 ft | 398 kts | 216° |
| 2026-05-05 04:55 | 28.31403 | 122.01450 | 38220 ft | 398 kts | 216° |
| 2026-05-05 04:55 | 28.26461 | 121.98586 | 38215 ft | 399 kts | 216° |
| 2026-05-05 04:56 | 28.21512 | 121.95721 | 38214 ft | 399 kts | 216° |
| 2026-05-05 04:56 | 28.16587 | 121.92873 | 38212 ft | 400 kts | 216° |
| 2026-05-05 04:57 | 28.11621 | 121.90004 | 38215 ft | 400 kts | 216° |
| 2026-05-05 04:57 | 28.06654 | 121.87137 | 38218 ft | 401 kts | 216° |
| 2026-05-05 04:58 | 28.01679 | 121.84269 | 38206 ft | 401 kts | 216° |
| 2026-05-05 04:58 | 27.96763 | 121.81355 | 38214 ft | 400 kts | 217° |
| 2026-05-05 04:59 | 27.91880 | 121.78310 | 38210 ft | 400 kts | 218° |
| 2026-05-05 04:59 | 27.86987 | 121.75260 | 38205 ft | 401 kts | 217° |
| 2026-05-05 05:00 | 27.82120 | 121.72247 | 38207 ft | 402 kts | 217° |
| 2026-05-05 05:00 | 27.77209 | 121.69216 | 38201 ft | 402 kts | 217° |
| 2026-05-05 05:01 | 27.72284 | 121.66181 | 38209 ft | 403 kts | 217° |
| 2026-05-05 05:01 | 27.67358 | 121.63148 | 38218 ft | 404 kts | 217° |
| 2026-05-05 05:02 | 27.62438 | 121.60120 | 38210 ft | 405 kts | 217° |
| 2026-05-05 05:02 | 27.57475 | 121.57073 | 38204 ft | 407 kts | 217° |
| 2026-05-05 05:03 | 27.52487 | 121.54037 | 38203 ft | 408 kts | 217° |
| 2026-05-05 05:03 | 27.47480 | 121.50998 | 38206 ft | 409 kts | 217° |
| 2026-05-05 05:04 | 27.42463 | 121.47953 | 38196 ft | 409 kts | 217° |
| 2026-05-05 05:04 | 27.37443 | 121.44907 | 38199 ft | 410 kts | 217° |
| 2026-05-05 05:05 | 27.32413 | 121.41857 | 38197 ft | 411 kts | 217° |
| 2026-05-05 05:05 | 27.27370 | 121.38803 | 38186 ft | 412 kts | 217° |
| 2026-05-05 05:06 | 27.22350 | 121.35766 | 38194 ft | 412 kts | 217° |
| 2026-05-05 05:06 | 27.17297 | 121.32697 | 38203 ft | 413 kts | 217° |
| 2026-05-05 05:07 | 27.12237 | 121.29621 | 38289 ft | 414 kts | 216° |
| 2026-05-05 05:07 | 27.07169 | 121.26545 | 38192 ft | 416 kts | 216° |
| 2026-05-05 05:08 | 27.02069 | 121.23455 | 38187 ft | 418 kts | 216° |
| 2026-05-05 05:08 | 26.96948 | 121.20354 | 38175 ft | 419 kts | 216° |
| 2026-05-05 05:09 | 26.91812 | 121.17249 | 38192 ft | 418 kts | 216° |
| 2026-05-05 05:09 | 26.86666 | 121.14139 | 38176 ft | 420 kts | 216° |
| 2026-05-05 05:10 | 26.81559 | 121.11056 | 38178 ft | 419 kts | 216° |
| 2026-05-05 05:10 | 26.76420 | 121.07957 | 38183 ft | 419 kts | 216° |
| 2026-05-05 05:11 | 26.71287 | 121.04865 | 38182 ft | 419 kts | 216° |
| 2026-05-05 05:11 | 26.66136 | 121.01764 | 38186 ft | 420 kts | 216° |
| 2026-05-05 05:12 | 26.60982 | 120.98663 | 38185 ft | 421 kts | 216° |
| 2026-05-05 05:12 | 26.55809 | 120.95553 | 38180 ft | 422 kts | 216° |
| 2026-05-05 05:13 | 26.50621 | 120.92437 | 38180 ft | 423 kts | 216° |
| 2026-05-05 05:13 | 26.45455 | 120.89338 | 38175 ft | 424 kts | 216° |
| 2026-05-05 05:14 | 26.40235 | 120.86210 | 38173 ft | 425 kts | 216° |
| 2026-05-05 05:14 | 26.35012 | 120.83084 | 38170 ft | 426 kts | 215° |
| 2026-05-05 05:15 | 26.29808 | 120.79972 | 38174 ft | 426 kts | 215° |
| 2026-05-05 05:15 | 26.24574 | 120.76846 | 38165 ft | 427 kts | 215° |
| 2026-05-05 05:16 | 26.19332 | 120.73717 | 38153 ft | 428 kts | 215° |
| 2026-05-05 05:16 | 26.14072 | 120.70581 | 38163 ft | 428 kts | 215° |
| 2026-05-05 05:17 | 26.08809 | 120.67446 | 38167 ft | 429 kts | 215° |
| 2026-05-05 05:17 | 26.03538 | 120.64310 | 38157 ft | 431 kts | 215° |
| 2026-05-05 05:18 | 25.98280 | 120.61185 | 38165 ft | 431 kts | 215° |
| 2026-05-05 05:18 | 25.92985 | 120.58042 | 38163 ft | 432 kts | 215° |
| 2026-05-05 05:19 | 25.87669 | 120.54889 | 38159 ft | 432 kts | 215° |
| 2026-05-05 05:19 | 25.82365 | 120.51746 | 38162 ft | 432 kts | 215° |
| 2026-05-05 05:20 | 25.77044 | 120.48596 | 38159 ft | 433 kts | 215° |
| 2026-05-05 05:20 | 25.71724 | 120.45449 | 38158 ft | 433 kts | 215° |
| 2026-05-05 05:21 | 25.66434 | 120.42323 | 38159 ft | 434 kts | 215° |
| 2026-05-05 05:21 | 25.61222 | 120.38978 | 38160 ft | 429 kts | 221° |
| 2026-05-05 05:22 | 25.56468 | 120.35024 | 38154 ft | 427 kts | 223° |
| 2026-05-05 05:22 | 25.51722 | 120.31051 | 38152 ft | 428 kts | 223° |
| 2026-05-05 05:23 | 25.46987 | 120.27111 | 38154 ft | 429 kts | 223° |
| 2026-05-05 05:23 | 25.42208 | 120.23145 | 38156 ft | 429 kts | 223° |
| 2026-05-05 05:24 | 25.37416 | 120.19174 | 38152 ft | 430 kts | 223° |
| 2026-05-05 05:24 | 25.32621 | 120.15205 | 38146 ft | 431 kts | 223° |
| 2026-05-05 05:25 | 25.27817 | 120.11232 | 38146 ft | 432 kts | 223° |
| 2026-05-05 05:25 | 25.23003 | 120.07254 | 38141 ft | 432 kts | 223° |
| 2026-05-05 05:26 | 25.18173 | 120.03268 | 38142 ft | 433 kts | 223° |
| 2026-05-05 05:26 | 25.13374 | 119.99311 | 38141 ft | 433 kts | 223° |
| 2026-05-05 05:27 | 25.08542 | 119.95329 | 38138 ft | 434 kts | 223° |
| 2026-05-05 05:27 | 25.01318 | 119.89286 | 38138 ft | 431 kts | 226° |
| 2026-05-05 05:28 | 24.97096 | 119.84652 | 38140 ft | 426 kts | 234° |
| 2026-05-05 05:28 | 24.93273 | 119.79708 | 38144 ft | 426 kts | 234° |
| 2026-05-05 05:29 | 24.89395 | 119.74705 | 38141 ft | 427 kts | 234° |
| 2026-05-05 05:29 | 24.85546 | 119.69761 | 38135 ft | 428 kts | 234° |
| 2026-05-05 05:30 | 24.81659 | 119.64782 | 38144 ft | 428 kts | 234° |
| 2026-05-05 05:30 | 24.77762 | 119.59799 | 38146 ft | 429 kts | 234° |
| 2026-05-05 05:31 | 24.73865 | 119.54819 | 38140 ft | 430 kts | 233° |
| 2026-05-05 05:31 | 24.69958 | 119.49833 | 38140 ft | 430 kts | 233° |
| 2026-05-05 05:32 | 24.66067 | 119.44872 | 38141 ft | 430 kts | 233° |
| 2026-05-05 05:32 | 24.62150 | 119.39884 | 38143 ft | 431 kts | 233° |
| 2026-05-05 05:33 | 24.58233 | 119.34900 | 38142 ft | 431 kts | 233° |
| 2026-05-05 05:33 | 24.54337 | 119.29948 | 38131 ft | 431 kts | 233° |
| 2026-05-05 05:34 | 24.50407 | 119.24959 | 38136 ft | 431 kts | 233° |
| 2026-05-05 05:34 | 24.46484 | 119.19983 | 38145 ft | 431 kts | 233° |
| 2026-05-05 05:35 | 24.42550 | 119.14999 | 38143 ft | 431 kts | 233° |
| 2026-05-05 05:35 | 24.38644 | 119.10054 | 38136 ft | 432 kts | 233° |
| 2026-05-05 05:36 | 24.34705 | 119.05073 | 38142 ft | 432 kts | 233° |
| 2026-05-05 05:36 | 24.30757 | 119.00086 | 38139 ft | 433 kts | 233° |
| 2026-05-05 05:37 | 24.27471 | 118.95939 | 38143 ft | 433 kts | 233° |
| 2026-05-05 05:37 | 24.22863 | 118.90131 | 38144 ft | 434 kts | 233° |
| 2026-05-05 05:38 | 24.19561 | 118.85971 | 38134 ft | 436 kts | 233° |
| 2026-05-05 05:38 | 24.15584 | 118.80968 | 38138 ft | 435 kts | 233° |
| 2026-05-05 05:39 | 24.11603 | 118.75965 | 38135 ft | 436 kts | 233° |
| 2026-05-05 05:39 | 24.07620 | 118.70964 | 38137 ft | 436 kts | 233° |
| 2026-05-05 05:40 | 24.03633 | 118.65963 | 38137 ft | 435 kts | 233° |
| 2026-05-05 05:40 | 23.99652 | 118.60974 | 38136 ft | 436 kts | 233° |
| 2026-05-05 05:41 | 23.95660 | 118.55977 | 38140 ft | 436 kts | 233° |
| 2026-05-05 05:41 | 23.91661 | 118.50974 | 38128 ft | 437 kts | 233° |
| 2026-05-05 05:42 | 23.87661 | 118.45977 | 38130 ft | 436 kts | 233° |
| 2026-05-05 05:42 | 23.83678 | 118.41031 | 38140 ft | 437 kts | 233° |
| 2026-05-05 05:43 | 23.79634 | 118.36061 | 38142 ft | 437 kts | 233° |
| 2026-05-05 05:43 | 23.75585 | 118.31089 | 38136 ft | 438 kts | 233° |
| 2026-05-05 05:44 | 23.71535 | 118.26116 | 38137 ft | 438 kts | 233° |
| 2026-05-05 05:44 | 23.67481 | 118.21139 | 38128 ft | 438 kts | 233° |
| 2026-05-05 05:45 | 23.63428 | 118.16167 | 38131 ft | 439 kts | 233° |
| 2026-05-05 05:45 | 23.59388 | 118.11216 | 38135 ft | 439 kts | 233° |
| 2026-05-05 05:46 | 23.55316 | 118.06233 | 38132 ft | 439 kts | 233° |
| 2026-05-05 05:46 | 23.51245 | 118.01253 | 38131 ft | 440 kts | 233° |
| 2026-05-05 05:47 | 23.47170 | 117.96276 | 38139 ft | 440 kts | 233° |
| 2026-05-05 05:47 | 23.43087 | 117.91293 | 38131 ft | 441 kts | 233° |
| 2026-05-05 05:48 | 23.39022 | 117.86337 | 38132 ft | 441 kts | 233° |
| 2026-05-05 05:48 | 23.34922 | 117.81340 | 38152 ft | 446 kts | 233° |
| 2026-05-05 05:49 | 23.30786 | 117.76308 | 38126 ft | 445 kts | 232° |
| 2026-05-05 05:49 | 23.26670 | 117.71309 | 38120 ft | 443 kts | 232° |
| 2026-05-05 05:50 | 23.22567 | 117.66326 | 38132 ft | 441 kts | 232° |
| 2026-05-05 05:50 | 23.18469 | 117.61353 | 38066 ft | 442 kts | 232° |
| 2026-05-05 05:51 | 23.14361 | 117.56371 | 38038 ft | 443 kts | 232° |
| 2026-05-05 05:51 | 23.10271 | 117.51420 | 38023 ft | 442 kts | 232° |
| 2026-05-05 05:52 | 23.06196 | 117.46428 | 38028 ft | 441 kts | 233° |
| 2026-05-05 05:52 | 23.02168 | 117.41408 | 38019 ft | 441 kts | 233° |
| 2026-05-05 05:53 | 22.98124 | 117.36400 | 38018 ft | 441 kts | 233° |
| 2026-05-05 05:53 | 22.94067 | 117.31382 | 38025 ft | 443 kts | 234° |
| 2026-05-05 05:54 | 22.90386 | 117.26040 | 38025 ft | 441 kts | 238° |
| 2026-05-05 05:54 | 22.86800 | 117.20657 | 38016 ft | 443 kts | 238° |
| 2026-05-05 05:55 | 22.83172 | 117.15250 | 38023 ft | 443 kts | 237° |
| 2026-05-05 05:55 | 22.79537 | 117.09854 | 38018 ft | 444 kts | 237° |
| 2026-05-05 05:56 | 22.75886 | 117.04431 | 38023 ft | 444 kts | 239° |
| 2026-05-05 05:56 | 22.72798 | 116.98677 | 38016 ft | 440 kts | 247° |
| 2026-05-05 05:57 | 22.70477 | 116.92585 | 38020 ft | 439 kts | 251° |
| 2026-05-05 05:57 | 22.68245 | 116.86427 | 38014 ft | 439 kts | 251° |
| 2026-05-05 05:58 | 22.65996 | 116.80265 | 38018 ft | 439 kts | 250° |
| 2026-05-05 05:58 | 22.63732 | 116.74110 | 38020 ft | 440 kts | 250° |
| 2026-05-05 05:59 | 22.61462 | 116.67961 | 38027 ft | 440 kts | 250° |
| 2026-05-05 05:59 | 22.59193 | 116.61823 | 38006 ft | 442 kts | 250° |
| 2026-05-05 06:00 | 22.56910 | 116.55658 | 38012 ft | 441 kts | 250° |
| 2026-05-05 06:00 | 22.54631 | 116.49508 | 38009 ft | 440 kts | 250° |
| 2026-05-05 06:01 | 22.52350 | 116.43364 | 38011 ft | 440 kts | 250° |
| 2026-05-05 06:01 | 22.50083 | 116.37262 | 38014 ft | 440 kts | 250° |
| 2026-05-05 06:02 | 22.47795 | 116.31114 | 38012 ft | 440 kts | 250° |
| 2026-05-05 06:02 | 22.45512 | 116.24987 | 38007 ft | 440 kts | 250° |
| 2026-05-05 06:03 | 22.44364 | 116.21908 | 37744 ft | 444 kts | 250° |
| 2026-05-05 06:03 | 22.43195 | 116.18771 | 36985 ft | 452 kts | 250° |
| 2026-05-05 06:03 | 22.42020 | 116.15624 | 36243 ft | 450 kts | 250° |
| 2026-05-05 06:03 | 22.40851 | 116.12499 | 35634 ft | 446 kts | 250° |
| 2026-05-05 06:04 | 22.39692 | 116.09404 | 35036 ft | 442 kts | 250° |
| 2026-05-05 06:04 | 22.38543 | 116.06335 | 34453 ft | 438 kts | 250° |
| 2026-05-05 06:04 | 22.37405 | 116.03298 | 33865 ft | 435 kts | 250° |
| 2026-05-05 06:04 | 22.36274 | 116.00279 | 33244 ft | 431 kts | 250° |
| 2026-05-05 06:05 | 22.35168 | 115.97328 | 32684 ft | 426 kts | 250° |
| 2026-05-05 06:05 | 22.34060 | 115.94373 | 32149 ft | 423 kts | 250° |
| 2026-05-05 06:05 | 22.32957 | 115.91435 | 31595 ft | 421 kts | 250° |
| 2026-05-05 06:05 | 22.31855 | 115.88501 | 31055 ft | 418 kts | 250° |
| 2026-05-05 06:06 | 22.30884 | 115.85604 | 30517 ft | 413 kts | 255° |
| 2026-05-05 06:06 | 22.30209 | 115.82606 | 29974 ft | 410 kts | 259° |
| 2026-05-05 06:06 | 22.29710 | 115.79549 | 29340 ft | 407 kts | 262° |
| 2026-05-05 06:06 | 22.29422 | 115.76528 | 28762 ft | 403 kts | 268° |
| 2026-05-05 06:07 | 22.29360 | 115.73516 | 28216 ft | 399 kts | 269° |
| 2026-05-05 06:07 | 22.29317 | 115.70534 | 27680 ft | 396 kts | 269° |
| 2026-05-05 06:07 | 22.29264 | 115.67571 | 27150 ft | 393 kts | 268° |
| 2026-05-05 06:07 | 22.29191 | 115.64636 | 26637 ft | 390 kts | 268° |
| 2026-05-05 06:08 | 22.29108 | 115.61715 | 26101 ft | 388 kts | 268° |
| 2026-05-05 06:08 | 22.29024 | 115.58817 | 25601 ft | 385 kts | 268° |
| 2026-05-05 06:08 | 22.28940 | 115.55932 | 25081 ft | 384 kts | 268° |
| 2026-05-05 06:08 | 22.28858 | 115.53059 | 24561 ft | 382 kts | 268° |
| 2026-05-05 06:09 | 22.28776 | 115.50195 | 24050 ft | 381 kts | 268° |
| 2026-05-05 06:09 | 22.28695 | 115.47375 | 23544 ft | 380 kts | 268° |
| 2026-05-05 06:09 | 22.28614 | 115.44530 | 22965 ft | 378 kts | 268° |
| 2026-05-05 06:09 | 22.28533 | 115.41705 | 22446 ft | 375 kts | 268° |
| 2026-05-05 06:10 | 22.28452 | 115.38899 | 21939 ft | 373 kts | 268° |
| 2026-05-05 06:10 | 22.28371 | 115.36110 | 21443 ft | 370 kts | 268° |
| 2026-05-05 06:10 | 22.28290 | 115.33337 | 20958 ft | 368 kts | 268° |
| 2026-05-05 06:10 | 22.28167 | 115.30591 | 20510 ft | 365 kts | 263° |
| 2026-05-05 06:11 | 22.27747 | 115.27897 | 20262 ft | 361 kts | 257° |
| 2026-05-05 06:11 | 22.27106 | 115.25287 | 20111 ft | 355 kts | 252° |
| 2026-05-05 06:11 | 22.26295 | 115.22806 | 19972 ft | 348 kts | 251° |
| 2026-05-05 06:11 | 22.25459 | 115.20376 | 19759 ft | 345 kts | 250° |
| 2026-05-05 06:12 | 22.24617 | 115.17956 | 19463 ft | 344 kts | 250° |
| 2026-05-05 06:12 | 22.23784 | 115.15560 | 19176 ft | 343 kts | 250° |
| 2026-05-05 06:12 | 22.22949 | 115.13152 | 18886 ft | 343 kts | 250° |
| 2026-05-05 06:12 | 22.22115 | 115.10737 | 18604 ft | 342 kts | 250° |
| 2026-05-05 06:13 | 22.21289 | 115.08340 | 18228 ft | 340 kts | 250° |
| 2026-05-05 06:13 | 22.20466 | 115.05947 | 17735 ft | 339 kts | 250° |
| 2026-05-05 06:13 | 22.19647 | 115.03567 | 17285 ft | 337 kts | 250° |
| 2026-05-05 06:13 | 22.18834 | 115.01202 | 16827 ft | 335 kts | 250° |
| 2026-05-05 06:14 | 22.18036 | 114.98878 | 16390 ft | 333 kts | 250° |
| 2026-05-05 06:14 | 22.17230 | 114.96532 | 15992 ft | 334 kts | 249° |
| 2026-05-05 06:14 | 22.16411 | 114.94158 | 15490 ft | 341 kts | 250° |
| 2026-05-05 06:14 | 22.15582 | 114.91748 | 14998 ft | 343 kts | 250° |
| 2026-05-05 06:15 | 22.14752 | 114.89337 | 14562 ft | 341 kts | 249° |
| 2026-05-05 06:15 | 22.13929 | 114.86947 | 14108 ft | 340 kts | 250° |
| 2026-05-05 06:15 | 22.13106 | 114.84562 | 13641 ft | 339 kts | 249° |
| 2026-05-05 06:15 | 22.12287 | 114.82187 | 13156 ft | 337 kts | 249° |
| 2026-05-05 06:16 | 22.11472 | 114.79822 | 12682 ft | 335 kts | 249° |
| 2026-05-05 06:16 | 22.10662 | 114.77476 | 12242 ft | 333 kts | 249° |
| 2026-05-05 06:16 | 22.09856 | 114.75141 | 11800 ft | 331 kts | 249° |
| 2026-05-05 06:16 | 22.09053 | 114.72819 | 11360 ft | 329 kts | 249° |
| 2026-05-05 06:17 | 22.08266 | 114.70545 | 10938 ft | 327 kts | 249° |
| 2026-05-05 06:17 | 22.07473 | 114.68251 | 10604 ft | 323 kts | 249° |
| 2026-05-05 06:17 | 22.06702 | 114.66023 | 10448 ft | 312 kts | 249° |
| 2026-05-05 06:17 | 22.05955 | 114.63864 | 10298 ft | 302 kts | 249° |
| 2026-05-05 06:18 | 22.05230 | 114.61772 | 10163 ft | 293 kts | 249° |
| 2026-05-05 06:18 | 22.04527 | 114.59744 | 10042 ft | 283 kts | 249° |
| 2026-05-05 06:18 | 22.03843 | 114.57771 | 9809 ft | 279 kts | 249° |
| 2026-05-05 06:18 | 22.03165 | 114.55818 | 9454 ft | 278 kts | 249° |
| 2026-05-05 06:19 | 22.02498 | 114.53897 | 9126 ft | 276 kts | 249° |
| 2026-05-05 06:19 | 22.01812 | 114.51985 | 8933 ft | 269 kts | 248° |
| 2026-05-05 06:19 | 22.01108 | 114.50140 | 8770 ft | 262 kts | 247° |
| 2026-05-05 06:19 | 22.00407 | 114.48323 | 8635 ft | 263 kts | 247° |
| 2026-05-05 06:20 | 21.99706 | 114.46504 | 8501 ft | 262 kts | 247° |
| 2026-05-05 06:20 | 21.99009 | 114.44694 | 8370 ft | 262 kts | 247° |
| 2026-05-05 06:20 | 21.98315 | 114.42890 | 8234 ft | 261 kts | 247° |
| 2026-05-05 06:20 | 21.97621 | 114.41083 | 8101 ft | 261 kts | 247° |
| 2026-05-05 06:21 | 21.96929 | 114.39279 | 7967 ft | 260 kts | 247° |
| 2026-05-05 06:21 | 21.96236 | 114.37473 | 7835 ft | 261 kts | 247° |
| 2026-05-05 06:21 | 21.95542 | 114.35663 | 7720 ft | 261 kts | 247° |
| 2026-05-05 06:21 | 21.95083 | 114.34466 | 7621 ft | 260 kts | 247° |
| 2026-05-05 06:22 | 21.94174 | 114.32095 | 7447 ft | 257 kts | 246° |
| 2026-05-05 06:22 | 21.93495 | 114.30327 | 7308 ft | 254 kts | 247° |
| 2026-05-05 06:22 | 21.93042 | 114.29146 | 7228 ft | 252 kts | 247° |
| 2026-05-05 06:22 | 21.92375 | 114.27408 | 7099 ft | 250 kts | 247° |
| 2026-05-05 06:23 | 21.91500 | 114.25132 | 6911 ft | 247 kts | 247° |
| 2026-05-05 06:23 | 21.91055 | 114.23973 | 6731 ft | 248 kts | 246° |
| 2026-05-05 06:23 | 21.90408 | 114.22291 | 6469 ft | 246 kts | 246° |
| 2026-05-05 06:23 | 21.89769 | 114.20564 | 6139 ft | 243 kts | 253° |
| 2026-05-05 06:24 | 21.89697 | 114.18784 | 5814 ft | 245 kts | 278° |
| 2026-05-05 06:24 | 21.90286 | 114.17065 | 5537 ft | 246 kts | 295° |
| 2026-05-05 06:24 | 21.91114 | 114.15453 | 5263 ft | 245 kts | 296° |
| 2026-05-05 06:24 | 21.91955 | 114.13851 | 4932 ft | 246 kts | 296° |
| 2026-05-05 06:25 | 21.92794 | 114.12255 | 4760 ft | 244 kts | 296° |
| 2026-05-05 06:25 | 21.93648 | 114.10625 | 4696 ft | 256 kts | 297° |
| 2026-05-05 06:25 | 21.94523 | 114.08946 | 4575 ft | 257 kts | 296° |
| 2026-05-05 06:25 | 21.95397 | 114.07270 | 4440 ft | 257 kts | 297° |
| 2026-05-05 06:26 | 21.96274 | 114.05580 | 4332 ft | 260 kts | 296° |
| 2026-05-05 06:26 | 21.97160 | 114.03873 | 4215 ft | 261 kts | 296° |
| 2026-05-05 06:26 | 21.98051 | 114.02152 | 4096 ft | 263 kts | 296° |
| 2026-05-05 06:26 | 21.98943 | 114.00426 | 3985 ft | 264 kts | 297° |
| 2026-05-05 06:27 | 21.99838 | 113.98695 | 3847 ft | 265 kts | 296° |
| 2026-05-05 06:27 | 22.01625 | 113.95231 | 3622 ft | 266 kts | 296° |
| 2026-05-05 06:27 | 22.02521 | 113.93494 | 3496 ft | 264 kts | 296° |
| 2026-05-05 06:28 | 22.03422 | 113.91745 | 3365 ft | 262 kts | 296° |
| 2026-05-05 06:28 | 22.04291 | 113.90058 | 3257 ft | 260 kts | 296° |
| 2026-05-05 06:28 | 22.05170 | 113.88351 | 3150 ft | 260 kts | 296° |
| 2026-05-05 06:28 | 22.06045 | 113.86653 | 3079 ft | 258 kts | 297° |
| 2026-05-05 06:29 | 22.06915 | 113.84960 | 3007 ft | 259 kts | 297° |
| 2026-05-05 06:29 | 22.07772 | 113.83292 | 2998 ft | 259 kts | 297° |
| 2026-05-05 06:29 | 22.08642 | 113.81600 | 2998 ft | 258 kts | 297° |
| 2026-05-05 06:29 | 22.09515 | 113.79901 | 3001 ft | 258 kts | 297° |
| 2026-05-05 06:30 | 22.10411 | 113.78219 | 2989 ft | 259 kts | 304° |
| 2026-05-05 06:30 | 22.11790 | 113.76982 | 2982 ft | 261 kts | 333° |
| 2026-05-05 06:30 | 22.13453 | 113.76169 | 2843 ft | 262 kts | 336° |
| 2026-05-05 06:30 | 22.15099 | 113.75364 | 2715 ft | 255 kts | 336° |
| 2026-05-05 06:31 | 22.16667 | 113.74590 | 2586 ft | 246 kts | 336° |
| 2026-05-05 06:31 | 22.18198 | 113.73830 | 2474 ft | 237 kts | 336° |
| 2026-05-05 06:31 | 22.19655 | 113.73104 | 2363 ft | 224 kts | 336° |
| 2026-05-05 06:31 | 22.21021 | 113.72424 | 2339 ft | 209 kts | 336° |
| 2026-05-05 06:32 | 22.22324 | 113.71792 | 2213 ft | 201 kts | 344° |
| 2026-05-05 06:32 | 22.23646 | 113.71786 | 2144 ft | 191 kts | 22° |
| 2026-05-05 06:32 | 22.24815 | 113.72527 | 2113 ft | 200 kts | 41° |
| 2026-05-05 06:32 | 22.25853 | 113.73472 | 1956 ft | 185 kts | 43° |
| 2026-05-05 06:33 | 22.26813 | 113.74369 | 1869 ft | 179 kts | 43° |
| 2026-05-05 06:33 | 22.27728 | 113.75246 | 1805 ft | 178 kts | 49° |
| 2026-05-05 06:33 | 22.28324 | 113.76402 | 1763 ft | 178 kts | 71° |
| 2026-05-05 06:33 | 22.28756 | 113.77674 | 1710 ft | 182 kts | 71° |
| 2026-05-05 06:34 | 22.29165 | 113.78917 | 1587 ft | 168 kts | 72° |
| 2026-05-05 06:34 | 22.29535 | 113.80065 | 1549 ft | 156 kts | 71° |
| 2026-05-05 06:34 | 22.29891 | 113.81172 | 1401 ft | 157 kts | 72° |
| 2026-05-05 06:34 | 22.30241 | 113.82264 | 1176 ft | 152 kts | 72° |
| 2026-05-05 06:35 | 22.30584 | 113.83333 | 1006 ft | 152 kts | 72° |
| 2026-05-05 06:35 | 22.30931 | 113.84414 | 798 ft | 151 kts | 71° |
| 2026-05-05 06:35 | 22.31276 | 113.85487 | 589 ft | 151 kts | 71° |
| 2026-05-05 06:35 | 22.31615 | 113.86547 | 401 ft | 154 kts | 70° |
| 2026-05-05 06:36 | 22.31960 | 113.87621 | 205 ft | 148 kts | 70° |
| 2026-05-05 06:36 | 22.32304 | 113.88672 | 48 ft | 147 kts | 70° |
| 2026-05-05 06:36 | 22.32614 | 113.89622 | 42 ft | 119 kts | 70° |
| 2026-05-05 06:36 | 22.32832 | 113.90302 | 41 ft | 75 kts | 71° |
| 2026-05-05 06:37 | 22.32942 | 113.90710 | 41 ft | 47 kts | 88° |
| 2026-05-05 06:37 | 22.32916 | 113.90923 | 43 ft | 0 kts | 101° |
| 2026-05-05 06:38 | 22.32908 | 113.90970 | 43 ft | 10 kts | 101° |
| 2026-05-05 06:38 | 22.32896 | 113.91044 | 43 ft | 10 kts | 92° |
| 2026-05-05 06:38 | 22.32914 | 113.91118 | 43 ft | 10 kts | 71° |
| 2026-05-05 06:39 | 22.32948 | 113.91224 | 43 ft | 22 kts | 71° |
| 2026-05-05 06:39 | 22.33003 | 113.91393 | 43 ft | 24 kts | 71° |
| 2026-05-05 06:39 | 22.33058 | 113.91563 | 43 ft | 24 kts | 70° |
| 2026-05-05 06:39 | 22.33113 | 113.91734 | 42 ft | 24 kts | 70° |
| 2026-05-05 06:40 | 22.33168 | 113.91906 | 42 ft | 24 kts | 70° |
| 2026-05-05 06:40 | 22.33214 | 113.92046 | 42 ft | 14 kts | 73° |
| 2026-05-05 06:40 | 22.33160 | 113.92123 | 42 ft | 14 kts | 159° |
| 2026-05-05 06:40 | 22.33042 | 113.92168 | 42 ft | 25 kts | 161° |
| 2026-05-05 06:41 | 22.32842 | 113.92242 | 42 ft | 31 kts | 161° |
| 2026-05-05 06:41 | 22.32642 | 113.92318 | 42 ft | 30 kts | 161° |
| 2026-05-05 06:41 | 22.32443 | 113.92393 | 42 ft | 30 kts | 161° |
| 2026-05-05 06:41 | 22.32265 | 113.92459 | 42 ft | 26 kts | 161° |
| 2026-05-05 06:42 | 22.32170 | 113.92512 | 42 ft | 12 kts | 121° |
| 2026-05-05 06:42 | 22.32182 | 113.92598 | 42 ft | 12 kts | 71° |
| 2026-05-05 06:42 | 22.32186 | 113.92679 | 42 ft | 9 kts | 129° |
| 2026-05-05 06:42 | 22.32121 | 113.92709 | 41 ft | 13 kts | 161° |
| 2026-05-05 06:43 | 22.32018 | 113.92748 | 40 ft | 16 kts | 161° |
| 2026-05-05 06:43 | 22.31915 | 113.92786 | 42 ft | 13 kts | 159° |
| 2026-05-05 06:43 | 22.31895 | 113.92795 | 42 ft | 0 kts | 158° |
| 2026-05-05 06:43 | 22.31894 | 113.92796 | 42 ft | 2 kts | 157° |
| 2026-05-05 06:44 | 22.31842 | 113.92819 | 42 ft | 12 kts | 158° |
| 2026-05-05 06:44 | 22.31782 | 113.92785 | 42 ft | 11 kts | 242° |
| 2026-05-05 06:44 | 22.31754 | 113.92704 | 42 ft | 12 kts | 251° |
| 2026-05-05 06:44 | 22.31715 | 113.92580 | 42 ft | 21 kts | 251° |
| 2026-05-05 06:45 | 22.31667 | 113.92431 | 42 ft | 21 kts | 251° |
| 2026-05-05 06:45 | 22.31618 | 113.92282 | 41 ft | 21 kts | 250° |
| 2026-05-05 06:45 | 22.31571 | 113.92138 | 41 ft | 17 kts | 250° |
| 2026-05-05 06:45 | 22.31512 | 113.92063 | 42 ft | 12 kts | 182° |
| 2026-05-05 06:46 | 22.31429 | 113.92092 | 42 ft | 13 kts | 161° |
| 2026-05-05 06:46 | 22.31331 | 113.92128 | 42 ft | 17 kts | 161° |
| 2026-05-05 06:46 | 22.31220 | 113.92170 | 42 ft | 17 kts | 161° |
| 2026-05-05 06:46 | 22.31108 | 113.92212 | 42 ft | 17 kts | 160° |
| 2026-05-05 06:47 | 22.30986 | 113.92259 | 42 ft | 19 kts | 160° |
| 2026-05-05 06:47 | 22.30896 | 113.92292 | 42 ft | 11 kts | 161° |
| 2026-05-05 06:47 | 22.30830 | 113.92316 | 42 ft | 7 kts | 161° |
| 2026-05-05 06:47 | 22.30823 | 113.92319 | 42 ft | 0 kts | 161° |
| 2026-05-05 06:48 | 22.30798 | 113.92328 | 42 ft | 12 kts | 161° |
| 2026-05-05 06:48 | 22.30679 | 113.92374 | 42 ft | 14 kts | 157° |
| 2026-05-05 06:49 | 22.30657 | 113.92432 | 42 ft | 9 kts | 78° |
| 2026-05-05 06:49 | 22.30678 | 113.92500 | 42 ft | 12 kts | 71° |
| 2026-05-05 06:49 | 22.30717 | 113.92620 | 42 ft | 19 kts | 70° |
| 2026-05-05 06:49 | 22.30760 | 113.92756 | 41 ft | 19 kts | 70° |
| 2026-05-05 06:50 | 22.30805 | 113.92893 | 41 ft | 19 kts | 71° |
| 2026-05-05 06:50 | 22.30848 | 113.93030 | 41 ft | 19 kts | 71° |
| 2026-05-05 06:50 | 22.30893 | 113.93166 | 41 ft | 19 kts | 71° |
| 2026-05-05 06:50 | 22.30943 | 113.93297 | 42 ft | 19 kts | 62° |
| 2026-05-05 06:51 | 22.30999 | 113.93403 | 42 ft | 14 kts | 50° |
| 2026-05-05 06:51 | 22.31088 | 113.93407 | 42 ft | 14 kts | 342° |
| 2026-05-05 06:51 | 22.31152 | 113.93387 | 42 ft | 5 kts | 5° |
| 2026-05-05 06:51 | 22.31173 | 113.93417 | 42 ft | 5 kts | 62° |
| 2026-05-05 06:52 | 22.31188 | 113.93456 | 42 ft | 6 kts | 69° |
| 2026-05-05 06:52 | 22.31197 | 113.93481 | 42 ft | 2 kts | 70° |
| 2026-05-05 06:52 | 22.31198 | 113.93486 | 42 ft | 0 kts | 70° |